Terminal Aerodrome Forecast
Issued by NWS Charleston, WV

Home | Current Version | Previous Version | Text Only | Print | Product List | Glossary On
Versions: 1 2 3 4 5 6 7 8 9 10 11 12 13 14 15 16 17 18 19 20
000
FTUS41 KRLX 120500
TAFPKB
TAF
KPKB 120535Z 1206/1306 00000KT 6SM BR FEW250
      TEMPO 1208/1212 4SM BR
     FM121300 00000KT P6SM SKC
     FM121700 22006KT P6SM SCT120
     FM130000 00000KT P6SM BKN140=

USA.gov is the U.S. government's official web portal to all federal, state and local government web resources and services.